NCAR-RAP Real-Time Weather Data

Output produced by METARs form (25 June 2022  04:49 UTC)
found at http://weather.rap.ucar.edu/surface/
 
KHGR 250353Z AUTO 20005KT 10SM CLR 23/18 A3009 RMK AO2 SLP194 T02330183 $
KHGR 250253Z AUTO 17006KT 10SM CLR 23/18 A3008 RMK AO2 SLP191 T02330183 51010 $
KHGR 250153Z 15005KT 10SM CLR 24/18 A3008 RMK AO2 SLP189 T02440183 $
KHGR 250053Z 15006KT 10SM CLR 26/18 A3006 RMK AO2 SLP184 T02560183 $
KHGR 242353Z 18007KT 10SM CLR 28/17 A3005 RMK AO2 SLP181 T02780172 10289 20256 53007 $
KHGR 242253Z VRB03KT 10SM CLR 28/15 A3004 RMK AO2 SLP175 T02830150 $
KHGR 242153Z 36003KT 10SM CLR 29/16 A3003 RMK AO2 SLP173 T02890156 $
KHGR 242053Z 27004KT 10SM FEW043 28/16 A3003 RMK AO2 SLP173 T02830156 56008 $
KHGR 241953Z VRB03KT 10SM BKN060 27/17 A3003 RMK AO2 SLP175 T02720172 $
KHGR 241853Z 07004KT 10SM BKN037 26/18 A3004 RMK AO2 SLP177 T02610178 $
KHGR 241753Z 14005KT 10SM SCT034 26/18 A3005 RMK AO2 SLP181 T02610183 10267 20194 58004
KHGR 241724Z 11004KT 10SM BKN032 OVC038 26/18 A3006 RMK AO2 T02560178
KHGR 241708Z 16004KT 10SM BKN029 OVC036 26/18 A3007 RMK AO2 T02560178
KHGR 241653Z 00000KT 10SM FEW030 BKN036 25/17 A3006 RMK AO2 SLP186 T02500172